Terminal Aerodrome Forecast
Issued by NWS Charleston, WV

Home | Current Version | Previous Version | Text Only | Print | Product List | Glossary On
Versions: 1 2 3 4 5 6 7 8 9 10 11 12 13 14 15 16 17 18 19 20 21 22 23
590
FTUS41 KRLX 280900 AAA
TAFBKW
TAF AMD
KBKW 280900Z 2809/2906 VRB04KT 6SM BR VCSH OVC060
     FM281200 26006KT P6SM BKN015
     FM281900 28007KT P6SM BKN025
     FM290400 33005KT 4SM BR BKN007=

USA.gov is the U.S. government's official web portal to all federal, state and local government web resources and services.